Time,TemperatureF,DewpointF,PressureIn,WindDirection,WindDirectionDegrees,WindSpeedMPH,WindSpeedGustMPH,Humidity,HourlyPrecipIn,Conditions,Clouds,dailyrainin,SoftwareType,DateUTC
2013-08-03 00:07:00,70.0,57.0,30.15,North,9,0.0,-999.0,64,-99.99,,,0.00,weatherlink.com 1.10,2013-08-03 06:07:00,
2013-08-03 00:22:00,69.5,57.0,30.16,WNW,302,1.0,-999.0,64,-99.99,,,0.00,weatherlink.com 1.10,2013-08-03 06:22:00,
2013-08-03 00:37:00,69.2,55.0,30.16,WNW,295,0.0,-999.0,61,-99.99,,,0.00,weatherlink.com 1.10,2013-08-03 06:37:00,
2013-08-03 00:52:00,68.8,55.0,30.16,North,355,1.0,-999.0,61,-99.99,,,0.00,weatherlink.com 1.10,2013-08-03 06:52:00,
2013-08-03 01:07:00,68.5,55.0,30.16,NW,309,2.0,-999.0,62,-99.99,,,0.00,weatherlink.com 1.10,2013-08-03 07:07:00,
2013-08-03 01:22:00,68.5,55.0,30.16,NW,311,3.0,-999.0,62,-99.99,,,0.00,weatherlink.com 1.10,2013-08-03 07:22:00,
2013-08-03 01:37:00,67.8,54.0,30.16,NNW,343,3.0,-999.0,62,-99.99,,,0.00,weatherlink.com 1.10,2013-08-03 07:37:00,
2013-08-03 01:52:00,67.9,55.0,30.16,NNW,348,1.0,-999.0,63,-99.99,,,0.00,weatherlink.com 1.10,2013-08-03 07:52:00,
2013-08-03 02:07:00,67.6,54.0,30.16,West,272,2.0,-999.0,61,-99.99,,,0.00,weatherlink.com 1.10,2013-08-03 08:07:00,
2013-08-03 02:22:00,66.8,53.0,30.16,WSW,252,4.0,-999.0,62,-99.99,,,0.00,weatherlink.com 1.10,2013-08-03 08:22:00,
2013-08-03 02:37:00,67.3,52.0,30.15,WSW,257,4.0,-999.0,59,-99.99,,,0.00,weatherlink.com 1.10,2013-08-03 08:37:00,
2013-08-03 02:52:00,67.7,52.0,30.15,WSW,257,4.0,-999.0,57,-99.99,,,0.00,weatherlink.com 1.10,2013-08-03 08:52:00,
2013-08-03 03:07:00,67.4,51.0,30.15,West,280,4.0,-999.0,55,-99.99,,,0.00,weatherlink.com 1.10,2013-08-03 09:07:00,
2013-08-03 03:22:00,67.8,50.0,30.14,West,277,3.0,-999.0,54,-99.99,,,0.00,weatherlink.com 1.10,2013-08-03 09:22:00,
2013-08-03 03:37:00,67.8,51.0,30.15,WSW,242,2.0,-999.0,55,-99.99,,,0.00,weatherlink.com 1.10,2013-08-03 09:37:00,
2013-08-03 03:52:00,66.5,52.0,30.15,WSW,237,4.0,-999.0,59,-99.99,,,0.00,weatherlink.com 1.10,2013-08-03 09:52:00,
2013-08-03 04:07:00,65.4,52.0,30.15,SW,229,3.0,-999.0,63,-99.99,,,0.00,weatherlink.com 1.10,2013-08-03 10:07:00,
2013-08-03 04:22:00,64.5,52.0,30.15,East,80,0.0,-999.0,64,-99.99,,,0.00,weatherlink.com 1.10,2013-08-03 10:22:00,
2013-08-03 04:37:00,63.8,53.0,30.16,East,80,0.0,-999.0,68,-99.99,,,0.00,weatherlink.com 1.10,2013-08-03 10:37:00,
2013-08-03 04:52:00,63.1,53.0,30.16,WNW,283,2.0,-999.0,69,-99.99,,,0.00,weatherlink.com 1.10,2013-08-03 10:52:00,
2013-08-03 05:07:00,63.1,53.0,30.16,WNW,283,3.0,-999.0,69,-99.99,,,0.00,weatherlink.com 1.10,2013-08-03 11:07:00,
2013-08-03 05:22:00,63.4,53.0,30.16,WNW,294,3.0,-999.0,69,-99.99,,,0.00,weatherlink.com 1.10,2013-08-03 11:22:00,
2013-08-03 05:38:00,63.4,53.0,30.16,WNW,298,1.0,-999.0,68,-99.99,,,0.00,weatherlink.com 1.10,2013-08-03 11:38:00,
2013-08-03 05:53:00,62.9,51.0,30.17,WNW,295,2.0,-999.0,66,-99.99,,,0.00,weatherlink.com 1.10,2013-08-03 11:53:00,
2013-08-03 06:07:00,62.4,51.0,30.17,WSW,248,3.0,-999.0,66,-99.99,,,0.00,weatherlink.com 1.10,2013-08-03 12:07:00,
2013-08-03 06:22:00,62.5,51.0,30.18,WSW,246,4.0,-999.0,66,-99.99,,,0.00,weatherlink.com 1.10,2013-08-03 12:22:00,
2013-08-03 06:38:00,62.6,50.0,30.18,West,281,3.0,-999.0,64,-99.99,,,0.00,weatherlink.com 1.10,2013-08-03 12:38:00,
2013-08-03 06:53:00,63.6,50.0,30.18,West,276,2.0,-999.0,61,-99.99,,,0.00,weatherlink.com 1.10,2013-08-03 12:53:00,
2013-08-03 07:07:00,64.1,51.0,30.18,West,260,0.0,-999.0,63,-99.99,,,0.00,weatherlink.com 1.10,2013-08-03 13:07:00,
2013-08-03 07:22:00,64.9,52.0,30.18,West,260,2.0,-999.0,63,-99.99,,,0.00,weatherlink.com 1.10,2013-08-03 13:22:00,
2013-08-03 07:37:00,66.3,52.0,30.19,West,261,0.0,-999.0,61,-99.99,,,0.00,weatherlink.com 1.10,2013-08-03 13:37:00,
2013-08-03 07:52:00,69.3,51.0,30.19,South,184,2.0,-999.0,52,-99.99,,,0.00,weatherlink.com 1.10,2013-08-03 13:52:00,
2013-08-03 08:07:00,70.6,53.0,30.20,SSW,199,5.0,-999.0,54,-99.99,,,0.00,weatherlink.com 1.10,2013-08-03 14:07:00,
2013-08-03 08:22:00,71.1,54.0,30.20,South,169,2.0,-999.0,55,-99.99,,,0.00,weatherlink.com 1.10,2013-08-03 14:22:00,
2013-08-03 08:37:00,72.0,56.0,30.20,South,173,5.0,-999.0,58,-99.99,,,0.00,weatherlink.com 1.10,2013-08-03 14:37:00,
2013-08-03 08:52:00,72.9,57.0,30.19,SE,146,3.0,-999.0,57,-99.99,,,0.00,weatherlink.com 1.10,2013-08-03 14:52:00,
2013-08-03 09:07:00,73.9,57.0,30.19,SSE,162,3.0,-999.0,55,-99.99,,,0.00,weatherlink.com 1.10,2013-08-03 15:07:00,
2013-08-03 09:22:00,75.1,57.0,30.19,SSE,162,5.0,-999.0,53,-99.99,,,0.00,weatherlink.com 1.10,2013-08-03 15:22:00,
2013-08-03 09:37:00,76.1,57.0,30.19,South,170,2.0,-999.0,51,-99.99,,,0.00,weatherlink.com 1.10,2013-08-03 15:37:00,
2013-08-03 09:52:00,76.9,56.0,30.19,South,180,3.0,-999.0,48,-99.99,,,0.00,weatherlink.com 1.10,2013-08-03 15:52:00,
2013-08-03 10:07:00,77.6,56.0,30.19,SE,141,3.0,-999.0,48,-99.99,,,0.00,weatherlink.com 1.10,2013-08-03 16:07:00,
2013-08-03 10:37:00,80.4,56.0,30.19,East,101,4.0,-999.0,44,-99.99,,,0.00,weatherlink.com 1.10,2013-08-03 16:37:00,
2013-08-03 10:52:00,82.1,58.0,30.19,ESE,115,2.0,-999.0,44,-99.99,,,0.00,weatherlink.com 1.10,2013-08-03 16:52:00,
2013-08-03 11:07:00,82.4,58.0,30.19,ENE,64,5.0,-999.0,43,-99.99,,,0.00,weatherlink.com 1.10,2013-08-03 17:07:00,
2013-08-03 11:22:00,83.8,58.0,30.19,ESE,119,1.0,-999.0,41,-99.99,,,0.00,weatherlink.com 1.10,2013-08-03 17:22:00,
2013-08-03 11:37:00,82.3,59.0,30.20,SSE,160,4.0,-999.0,45,-99.99,,,0.00,weatherlink.com 1.10,2013-08-03 17:37:00,
2013-08-03 11:52:00,80.3,59.0,30.20,SSE,167,0.0,-999.0,48,-99.99,,,0.00,weatherlink.com 1.10,2013-08-03 17:52:00,
2013-08-03 12:08:00,79.1,57.0,30.20,SSW,195,3.0,-999.0,47,-99.99,,,0.00,weatherlink.com 1.10,2013-08-03 18:08:00,
2013-08-03 12:22:00,78.2,53.0,30.19,West,268,1.0,-999.0,41,-99.99,,,0.00,weatherlink.com 1.10,2013-08-03 18:22:00,
2013-08-03 12:37:00,80.2,54.0,30.17,East,99,7.0,-999.0,40,-99.99,,,0.00,weatherlink.com 1.10,2013-08-03 18:37:00,
2013-08-03 12:52:00,82.6,49.0,30.18,WSW,241,13.0,-999.0,31,-99.99,,,0.00,weatherlink.com 1.10,2013-08-03 18:52:00,
2013-08-03 13:07:00,82.3,50.0,30.18,South,182,6.0,-999.0,33,-99.99,,,0.00,weatherlink.com 1.10,2013-08-03 19:07:00,
2013-08-03 13:22:00,82.6,53.0,30.18,SSE,168,1.0,-999.0,36,-99.99,,,0.00,weatherlink.com 1.10,2013-08-03 19:22:00,
2013-08-03 13:37:00,84.1,57.0,30.18,North,5,6.0,-999.0,40,-99.99,,,0.00,weatherlink.com 1.10,2013-08-03 19:37:00,
2013-08-03 13:52:00,85.6,55.0,30.18,NE,36,0.0,-999.0,35,-99.99,,,0.00,weatherlink.com 1.10,2013-08-03 19:52:00,
2013-08-03 14:07:00,87.0,55.0,30.17,SSE,161,5.0,-999.0,33,-99.99,,,0.00,weatherlink.com 1.10,2013-08-03 20:07:00,
2013-08-03 14:22:00,85.9,54.0,30.17,SSE,156,6.0,-999.0,34,-99.99,,,0.00,weatherlink.com 1.10,2013-08-03 20:22:00,
2013-08-03 14:38:00,84.3,56.0,30.16,South,170,3.0,-999.0,38,-99.99,,,0.00,weatherlink.com 1.10,2013-08-03 20:38:00,
2013-08-03 14:53:00,84.4,55.0,30.15,SE,126,4.0,-999.0,36,-99.99,,,0.00,weatherlink.com 1.10,2013-08-03 20:53:00,
2013-08-03 15:08:00,87.1,57.0,30.14,SW,236,15.0,-999.0,36,-99.99,,,0.00,weatherlink.com 1.10,2013-08-03 21:08:00,
2013-08-03 15:23:00,87.9,51.0,30.14,SSW,198,11.0,-999.0,28,-99.99,,,0.00,weatherlink.com 1.10,2013-08-03 21:23:00,
2013-08-03 15:37:00,88.7,50.0,30.15,WNW,284,5.0,-999.0,26,-99.99,,,0.00,weatherlink.com 1.10,2013-08-03 21:37:00,
2013-08-03 15:52:00,87.8,54.0,30.15,SSE,159,7.0,-999.0,31,-99.99,,,0.00,weatherlink.com 1.10,2013-08-03 21:52:00,
2013-08-03 16:07:00,89.6,51.0,30.16,ENE,65,6.0,-999.0,27,-99.99,,,0.00,weatherlink.com 1.10,2013-08-03 22:07:00,
2013-08-03 16:22:00,80.7,61.0,30.18,NE,44,18.0,-999.0,52,-99.99,,,0.00,weatherlink.com 1.10,2013-08-03 22:22:00,
2013-08-03 16:37:00,73.5,56.0,30.20,NE,38,21.0,-999.0,55,-99.99,,,0.00,weatherlink.com 1.10,2013-08-03 22:37:00,
2013-08-03 16:52:00,63.4,55.0,30.24,NNE,12,15.0,-999.0,73,-99.99,,,0.00,weatherlink.com 1.10,2013-08-03 22:52:00,
2013-08-03 17:07:00,62.5,58.0,30.25,NNW,342,28.0,-999.0,85,-99.99,,,0.30,weatherlink.com 1.10,2013-08-03 23:07:00,
2013-08-03 17:22:00,60.1,58.0,30.25,WNW,303,10.0,-999.0,92,-99.99,,,0.90,weatherlink.com 1.10,2013-08-03 23:22:00,
2013-08-03 17:37:00,60.8,59.0,30.25,North,350,0.0,-999.0,92,-99.99,,,0.95,weatherlink.com 1.10,2013-08-03 23:37:00,
2013-08-03 17:52:00,60.8,58.0,30.27,ENE,67,9.0,-999.0,91,-99.99,,,0.95,weatherlink.com 1.10,2013-08-03 23:52:00,
2013-08-03 18:07:00,59.9,58.0,30.28,NE,53,4.0,-999.0,93,-99.99,,,0.96,weatherlink.com 1.10,2013-08-04 00:07:00,
2013-08-03 18:22:00,61.0,59.0,30.29,NE,42,5.0,-999.0,94,-99.99,,,0.99,weatherlink.com 1.10,2013-08-04 00:22:00,
2013-08-03 18:38:00,62.0,60.0,30.29,NE,55,3.0,-999.0,93,-99.99,,,0.99,weatherlink.com 1.10,2013-08-04 00:38:00,
2013-08-03 18:53:00,61.1,59.0,30.29,ENE,76,2.0,-999.0,92,-99.99,,,0.99,weatherlink.com 1.10,2013-08-04 00:53:00,
2013-08-03 19:07:00,61.0,58.0,30.29,ENE,76,2.0,-999.0,90,-99.99,,,0.99,weatherlink.com 1.10,2013-08-04 01:07:00,
2013-08-03 19:22:00,61.1,59.0,30.29,ENE,76,0.0,-999.0,91,-99.99,,,0.99,weatherlink.com 1.10,2013-08-04 01:22:00,
2013-08-03 19:38:00,61.4,59.0,30.30,SW,227,4.0,-999.0,90,-99.99,,,0.99,weatherlink.com 1.10,2013-08-04 01:38:00,
2013-08-03 19:53:00,62.1,60.0,30.31,SSW,203,11.0,-999.0,92,-99.99,,,0.99,weatherlink.com 1.10,2013-08-04 01:53:00,
2013-08-03 20:08:00,62.4,59.0,30.32,South,185,12.0,-999.0,89,-99.99,,,0.99,weatherlink.com 1.10,2013-08-04 02:08:00,
2013-08-03 20:22:00,62.6,58.0,30.32,SSW,208,11.0,-999.0,85,-99.99,,,0.99,weatherlink.com 1.10,2013-08-04 02:22:00,
2013-08-03 20:37:00,62.6,57.0,30.32,SSW,202,12.0,-999.0,82,-99.99,,,0.99,weatherlink.com 1.10,2013-08-04 02:37:00,
2013-08-03 20:52:00,63.2,56.0,30.33,SSW,203,14.0,-999.0,77,-99.99,,,0.99,weatherlink.com 1.10,2013-08-04 02:52:00,
2013-08-03 21:07:00,63.0,56.0,30.33,SSW,194,15.0,-999.0,78,-99.99,,,0.99,weatherlink.com 1.10,2013-08-04 03:07:00,
2013-08-03 21:22:00,62.7,55.0,30.33,South,184,9.0,-999.0,77,-99.99,,,0.99,weatherlink.com 1.10,2013-08-04 03:22:00,
2013-08-03 21:37:00,62.2,55.0,30.33,SSW,213,6.0,-999.0,77,-99.99,,,0.99,weatherlink.com 1.10,2013-08-04 03:37:00,
2013-08-03 21:52:00,62.1,55.0,30.32,SW,214,6.0,-999.0,77,-99.99,,,0.99,weatherlink.com 1.10,2013-08-04 03:52:00,
2013-08-03 22:07:00,62.7,54.0,30.32,SW,221,10.0,-999.0,73,-99.99,,,0.99,weatherlink.com 1.10,2013-08-04 04:07:00,
2013-08-03 22:22:00,62.8,53.0,30.33,SW,232,13.0,-999.0,71,-99.99,,,0.99,weatherlink.com 1.10,2013-08-04 04:22:00,
2013-08-03 22:38:00,63.5,53.0,30.32,SW,215,13.0,-999.0,68,-99.99,,,0.99,weatherlink.com 1.10,2013-08-04 04:38:00,
2013-08-03 22:53:00,63.5,52.0,30.31,SW,215,15.0,-999.0,67,-99.99,,,0.99,weatherlink.com 1.10,2013-08-04 04:53:00,
2013-08-03 23:08:00,63.6,52.0,30.30,SW,228,17.0,-999.0,66,-99.99,,,0.99,weatherlink.com 1.10,2013-08-04 05:08:00,
2013-08-03 23:23:00,64.0,51.0,30.30,SW,229,18.0,-999.0,63,-99.99,,,0.99,weatherlink.com 1.10,2013-08-04 05:23:00,
2013-08-03 23:37:00,64.4,51.0,30.29,SW,226,16.0,-999.0,62,-99.99,,,0.99,weatherlink.com 1.10,2013-08-04 05:37:00,
2013-08-03 23:52:00,64.8,50.0,30.27,SW,221,17.0,-999.0,60,-99.99,,,0.99,weatherlink.com 1.10,2013-08-04 05:52:00,